This is the latest recevied weather packets stored in our database for station/object KJ4RDP-13. If no packets are shown the sender has not sent any weather packets the latest 10 day(s).
| Time | Temp. | Humidity | Pressure | Rain* | Wind** | Luminosity | Snow |
|---|---|---|---|---|---|---|---|
| 1778083323 | 15° C | 99% | 1016 hPa | 0.25 mm | - | 135 W/m² | - |
| 1778083021 | 15° C | 99% | 1016 hPa | 7.37 mm | - | 59 W/m² | - |
| 1778082718 | 15° C | 99% | 1015.7 hPa | 6.6 mm | - | 91 W/m² | - |
| 1778081580 | 16.67° C | 86% | 1015.7 hPa | 0.25 mm | - | 19 W/m² | - |
| 1778081277 | 17.22° C | 85% | 1014.9 hPa | 0 mm | - | 73 W/m² | - |
| 1778080974 | 17.22° C | 82% | 1015.2 hPa | 0 mm | - | 70 W/m² | - |
| 1778080673 | 17.22° C | 81% | 1014.6 hPa | 0 mm | - | 81 W/m² | - |
| 1778080369 | 17.78° C | 81% | 1014.6 hPa | 0 mm | - | 104 W/m² | - |
| 1778080066 | 17.78° C | 79% | 1014.2 hPa | 0 mm | - | 115 W/m² | - |
| 1778079763 | 17.78° C | 78% | 1014.6 hPa | 0 mm | - | 110 W/m² | - |
| 1778079460 | 18.33° C | 78% | 1014.6 hPa | 0 mm | - | 96 W/m² | - |
| 1778079156 | 17.78° C | 77% | 1014.6 hPa | 0 mm | - | 118 W/m² | - |
| 1778078854 | 17.78° C | 78% | 1014.2 hPa | 0 mm | - | 140 W/m² | - |
| 1778078551 | 18.33° C | 76% | 1014.2 hPa | 0 mm | - | 169 W/m² | - |
| 1778078248 | 17.78° C | 76% | 1014.2 hPa | 0 mm | - | 164 W/m² | - |
| 1778077946 | 17.78° C | 76% | 1014.2 hPa | 0 mm | - | 172 W/m² | - |
| 1778077644 | 18.33° C | 75% | 1014.2 hPa | 0 mm | - | 189 W/m² | - |
| 1778077342 | 18.33° C | 76% | 1014.2 hPa | 0 mm | - | 206 W/m² | - |
| 1778077040 | 17.78° C | 79% | 1013.8 hPa | 0 mm | - | 209 W/m² | - |
| 1778076738 | 17.22° C | 79% | 1013.8 hPa | 0 mm | - | 176 W/m² | - |
| 1778076435 | 17.22° C | 81% | 1013.8 hPa | 0 mm | - | 130 W/m² | - |
| 1778076132 | 17.22° C | 79% | 1013.8 hPa | 0 mm | - | 92 W/m² | - |
| 1778075829 | 17.22° C | 79% | 1013.8 hPa | 0 mm | - | 88 W/m² | - |
| 1778075525 | 17.22° C | 80% | 1013.8 hPa | 0 mm | - | 92 W/m² | - |
| 1778075222 | 16.67° C | 80% | 1013.8 hPa | 0 mm | - | 81 W/m² | - |
* Rain latest hour (hover to see other rain measurements)
** Current wind speed in m/s (hover to see current wind gust speed)